sensor_id;sensor_type;location;lat;lon;timestamp;P1;durP1;ratioP1;P2;durP2;ratioP2
52898;SDS011;38763;53.096;6.062;2023-05-16T00:01:17;12.15;;;2.10;;
52898;SDS011;38763;53.096;6.062;2023-05-16T00:03:43;19.40;;;2.78;;
52898;SDS011;38763;53.096;6.062;2023-05-16T00:06:09;17.40;;;2.33;;
52898;SDS011;38763;53.096;6.062;2023-05-16T00:08:35;16.70;;;2.65;;
52898;SDS011;38763;53.096;6.062;2023-05-16T00:11:01;10.90;;;2.00;;
52898;SDS011;38763;53.096;6.062;2023-05-16T00:13:27;13.93;;;1.95;;
52898;SDS011;38763;53.096;6.062;2023-05-16T00:15:53;12.30;;;1.88;;
52898;SDS011;38763;53.096;6.062;2023-05-16T00:18:20;9.20;;;1.90;;
52898;SDS011;38763;53.096;6.062;2023-05-16T00:20:47;12.00;;;2.30;;
52898;SDS011;38763;53.096;6.062;2023-05-16T00:23:13;14.48;;;2.22;;
52898;SDS011;38763;53.096;6.062;2023-05-16T00:25:39;17.75;;;2.15;;
52898;SDS011;38763;53.096;6.062;2023-05-16T00:28:05;16.90;;;2.65;;
52898;SDS011;38763;53.096;6.062;2023-05-16T00:30:32;14.98;;;2.40;;
52898;SDS011;38763;53.096;6.062;2023-05-16T00:32:58;17.73;;;2.20;;
52898;SDS011;38763;53.096;6.062;2023-05-16T00:35:24;13.05;;;2.00;;
52898;SDS011;38763;53.096;6.062;2023-05-16T00:37:50;18.38;;;2.20;;
52898;SDS011;38763;53.096;6.062;2023-05-16T00:40:16;17.60;;;2.08;;
52898;SDS011;38763;53.096;6.062;2023-05-16T00:42:42;13.15;;;1.90;;
52898;SDS011;38763;53.096;6.062;2023-05-16T00:45:07;11.68;;;2.10;;
52898;SDS011;38763;53.096;6.062;2023-05-16T00:47:34;10.93;;;1.85;;
52898;SDS011;38763;53.096;6.062;2023-05-16T00:50:00;12.18;;;2.40;;
52898;SDS011;38763;53.096;6.062;2023-05-16T00:52:26;16.48;;;2.10;;
52898;SDS011;38763;53.096;6.062;2023-05-16T00:54:52;18.30;;;2.20;;
52898;SDS011;38763;53.096;6.062;2023-05-16T00:57:18;11.93;;;1.70;;
52898;SDS011;38763;53.096;6.062;2023-05-16T00:59:45;12.85;;;1.70;;
52898;SDS011;38763;53.096;6.062;2023-05-16T01:02:11;20.02;;;2.75;;
52898;SDS011;38763;53.096;6.062;2023-05-16T01:04:38;13.23;;;2.40;;
52898;SDS011;38763;53.096;6.062;2023-05-16T01:07:04;10.43;;;1.58;;
52898;SDS011;38763;53.096;6.062;2023-05-16T01:09:30;13.50;;;1.70;;
52898;SDS011;38763;53.096;6.062;2023-05-16T01:26:14;15.80;;;2.05;;
52898;SDS011;38763;53.096;6.062;2023-05-16T01:28:43;12.15;;;1.88;;
52898;SDS011;38763;53.096;6.062;2023-05-16T01:31:10;11.93;;;2.00;;
52898;SDS011;38763;53.096;6.062;2023-05-16T01:33:36;16.23;;;2.15;;
52898;SDS011;38763;53.096;6.062;2023-05-16T01:43:55;8.52;;;1.98;;
52898;SDS011;38763;53.096;6.062;2023-05-16T01:46:30;18.80;;;2.28;;
52898;SDS011;38763;53.096;6.062;2023-05-16T01:52:07;15.18;;;2.60;;
52898;SDS011;38763;53.096;6.062;2023-05-16T01:54:36;9.52;;;1.98;;
52898;SDS011;38763;53.096;6.062;2023-05-16T01:57:04;12.88;;;2.53;;
52898;SDS011;38763;53.096;6.062;2023-05-16T01:59:32;13.70;;;2.30;;
52898;SDS011;38763;53.096;6.062;2023-05-16T02:01:58;15.18;;;2.10;;
52898;SDS011;38763;53.096;6.062;2023-05-16T02:04:24;9.25;;;2.08;;
52898;SDS011;38763;53.096;6.062;2023-05-16T02:06:50;8.32;;;2.13;;
52898;SDS011;38763;53.096;6.062;2023-05-16T02:09:16;17.80;;;2.67;;
52898;SDS011;38763;53.096;6.062;2023-05-16T02:11:42;13.85;;;2.33;;
52898;SDS011;38763;53.096;6.062;2023-05-16T02:14:08;13.82;;;2.55;;
52898;SDS011;38763;53.096;6.062;2023-05-16T02:16:34;17.20;;;2.60;;
52898;SDS011;38763;53.096;6.062;2023-05-16T02:19:00;15.15;;;2.42;;
52898;SDS011;38763;53.096;6.062;2023-05-16T02:21:25;13.43;;;2.15;;
52898;SDS011;38763;53.096;6.062;2023-05-16T02:23:51;11.43;;;2.10;;
52898;SDS011;38763;53.096;6.062;2023-05-16T02:26:17;14.35;;;2.22;;
52898;SDS011;38763;53.096;6.062;2023-05-16T02:28:42;13.73;;;2.30;;
52898;SDS011;38763;53.096;6.062;2023-05-16T02:31:08;11.15;;;2.20;;
52898;SDS011;38763;53.096;6.062;2023-05-16T02:33:34;10.55;;;2.45;;
52898;SDS011;38763;53.096;6.062;2023-05-16T02:36:00;13.13;;;2.15;;
52898;SDS011;38763;53.096;6.062;2023-05-16T02:38:26;15.88;;;2.05;;
52898;SDS011;38763;53.096;6.062;2023-05-16T02:40:51;14.20;;;1.95;;
52898;SDS011;38763;53.096;6.062;2023-05-16T02:43:17;10.00;;;2.15;;
52898;SDS011;38763;53.096;6.062;2023-05-16T02:45:43;11.65;;;2.13;;
52898;SDS011;38763;53.096;6.062;2023-05-16T02:48:09;16.35;;;2.92;;
52898;SDS011;38763;53.096;6.062;2023-05-16T02:50:35;11.88;;;2.08;;
52898;SDS011;38763;53.096;6.062;2023-05-16T02:53:01;12.82;;;2.67;;
52898;SDS011;38763;53.096;6.062;2023-05-16T02:55:27;13.55;;;2.10;;
52898;SDS011;38763;53.096;6.062;2023-05-16T02:57:53;11.02;;;2.05;;
52898;SDS011;38763;53.096;6.062;2023-05-16T03:00:19;16.10;;;2.13;;
52898;SDS011;38763;53.096;6.062;2023-05-16T03:02:45;16.02;;;2.20;;
52898;SDS011;38763;53.096;6.062;2023-05-16T03:05:11;13.95;;;2.17;;
52898;SDS011;38763;53.096;6.062;2023-05-16T03:07:37;11.45;;;2.28;;
52898;SDS011;38763;53.096;6.062;2023-05-16T03:10:03;9.55;;;1.80;;
52898;SDS011;38763;53.096;6.062;2023-05-16T03:12:29;18.75;;;2.50;;
52898;SDS011;38763;53.096;6.062;2023-05-16T03:14:55;13.73;;;2.13;;
52898;SDS011;38763;53.096;6.062;2023-05-16T03:17:20;13.10;;;2.47;;
52898;SDS011;38763;53.096;6.062;2023-05-16T03:19:46;9.23;;;1.80;;
52898;SDS011;38763;53.096;6.062;2023-05-16T03:22:12;11.40;;;2.22;;
52898;SDS011;38763;53.096;6.062;2023-05-16T03:24:37;11.60;;;2.35;;
52898;SDS011;38763;53.096;6.062;2023-05-16T03:27:03;11.90;;;1.98;;
52898;SDS011;38763;53.096;6.062;2023-05-16T03:29:29;9.32;;;2.10;;
52898;SDS011;38763;53.096;6.062;2023-05-16T03:31:55;9.23;;;1.73;;
52898;SDS011;38763;53.096;6.062;2023-05-16T03:34:21;11.90;;;1.90;;
52898;SDS011;38763;53.096;6.062;2023-05-16T03:36:50;8.02;;;1.73;;
52898;SDS011;38763;53.096;6.062;2023-05-16T03:39:16;14.27;;;2.30;;
52898;SDS011;38763;53.096;6.062;2023-05-16T03:41:42;13.82;;;2.08;;
52898;SDS011;38763;53.096;6.062;2023-05-16T03:44:07;14.63;;;2.00;;
52898;SDS011;38763;53.096;6.062;2023-05-16T03:46:34;10.27;;;2.10;;
52898;SDS011;38763;53.096;6.062;2023-05-16T03:49:00;16.50;;;2.22;;
52898;SDS011;38763;53.096;6.062;2023-05-16T03:51:26;9.50;;;1.77;;
52898;SDS011;38763;53.096;6.062;2023-05-16T03:53:52;15.70;;;2.40;;
52898;SDS011;38763;53.096;6.062;2023-05-16T03:56:18;11.18;;;1.90;;
52898;SDS011;38763;53.096;6.062;2023-05-16T03:58:45;9.07;;;2.08;;
52898;SDS011;38763;53.096;6.062;2023-05-16T04:01:11;12.25;;;2.60;;
52898;SDS011;38763;53.096;6.062;2023-05-16T04:03:37;16.85;;;2.22;;
52898;SDS011;38763;53.096;6.062;2023-05-16T04:06:03;13.95;;;1.85;;
52898;SDS011;38763;53.096;6.062;2023-05-16T04:08:29;13.50;;;1.80;;
52898;SDS011;38763;53.096;6.062;2023-05-16T04:10:55;12.73;;;2.15;;
52898;SDS011;38763;53.096;6.062;2023-05-16T04:13:21;13.13;;;2.20;;
52898;SDS011;38763;53.096;6.062;2023-05-16T04:15:47;9.23;;;1.95;;
52898;SDS011;38763;53.096;6.062;2023-05-16T04:18:12;13.07;;;1.92;;
52898;SDS011;38763;53.096;6.062;2023-05-16T04:20:38;11.15;;;2.08;;
52898;SDS011;38763;53.096;6.062;2023-05-16T04:23:03;14.68;;;2.13;;
52898;SDS011;38763;53.096;6.062;2023-05-16T04:25:29;9.15;;;2.30;;
52898;SDS011;38763;53.096;6.062;2023-05-16T04:27:55;9.95;;;2.05;;
52898;SDS011;38763;53.096;6.062;2023-05-16T04:30:21;14.75;;;2.60;;
52898;SDS011;38763;53.096;6.062;2023-05-16T04:32:47;18.65;;;2.40;;
52898;SDS011;38763;53.096;6.062;2023-05-16T04:35:12;10.68;;;2.20;;
52898;SDS011;38763;53.096;6.062;2023-05-16T04:37:38;17.63;;;2.28;;
52898;SDS011;38763;53.096;6.062;2023-05-16T04:40:04;11.20;;;1.92;;
52898;SDS011;38763;53.096;6.062;2023-05-16T04:42:31;8.95;;;1.88;;
52898;SDS011;38763;53.096;6.062;2023-05-16T04:44:57;13.27;;;2.25;;
52898;SDS011;38763;53.096;6.062;2023-05-16T04:47:23;12.65;;;2.35;;
52898;SDS011;38763;53.096;6.062;2023-05-16T04:49:48;10.88;;;2.08;;
52898;SDS011;38763;53.096;6.062;2023-05-16T04:52:14;8.27;;;1.80;;
52898;SDS011;38763;53.096;6.062;2023-05-16T04:54:40;7.25;;;1.50;;
52898;SDS011;38763;53.096;6.062;2023-05-16T04:57:06;11.75;;;2.03;;
52898;SDS011;38763;53.096;6.062;2023-05-16T04:59:32;8.63;;;1.77;;
52898;SDS011;38763;53.096;6.062;2023-05-16T05:01:57;12.45;;;2.10;;
52898;SDS011;38763;53.096;6.062;2023-05-16T05:04:23;9.95;;;1.85;;
52898;SDS011;38763;53.096;6.062;2023-05-16T05:06:49;10.93;;;1.67;;
52898;SDS011;38763;53.096;6.062;2023-05-16T05:09:14;10.57;;;1.90;;
52898;SDS011;38763;53.096;6.062;2023-05-16T05:11:41;9.40;;;1.98;;
52898;SDS011;38763;53.096;6.062;2023-05-16T05:14:06;11.80;;;1.70;;
52898;SDS011;38763;53.096;6.062;2023-05-16T05:16:32;14.38;;;2.20;;
52898;SDS011;38763;53.096;6.062;2023-05-16T05:18:58;12.00;;;2.10;;
52898;SDS011;38763;53.096;6.062;2023-05-16T05:21:24;12.40;;;2.30;;
52898;SDS011;38763;53.096;6.062;2023-05-16T05:23:50;15.25;;;2.00;;
52898;SDS011;38763;53.096;6.062;2023-05-16T05:26:16;10.77;;;1.65;;
52898;SDS011;38763;53.096;6.062;2023-05-16T05:28:42;9.40;;;1.60;;
52898;SDS011;38763;53.096;6.062;2023-05-16T05:31:08;11.95;;;1.85;;
52898;SDS011;38763;53.096;6.062;2023-05-16T05:33:33;8.98;;;1.63;;
52898;SDS011;38763;53.096;6.062;2023-05-16T05:35:59;22.50;;;2.00;;
52898;SDS011;38763;53.096;6.062;2023-05-16T05:38:25;11.73;;;1.70;;
52898;SDS011;38763;53.096;6.062;2023-05-16T05:40:51;11.70;;;1.85;;
52898;SDS011;38763;53.096;6.062;2023-05-16T05:43:16;10.32;;;1.67;;
52898;SDS011;38763;53.096;6.062;2023-05-16T05:45:42;9.43;;;1.60;;
52898;SDS011;38763;53.096;6.062;2023-05-16T05:48:08;12.32;;;1.70;;
52898;SDS011;38763;53.096;6.062;2023-05-16T05:50:35;13.00;;;1.67;;
52898;SDS011;38763;53.096;6.062;2023-05-16T05:53:01;8.88;;;1.27;;
52898;SDS011;38763;53.096;6.062;2023-05-16T05:55:26;9.55;;;1.23;;
52898;SDS011;38763;53.096;6.062;2023-05-16T05:57:52;9.07;;;1.50;;
52898;SDS011;38763;53.096;6.062;2023-05-16T06:00:18;7.60;;;1.15;;
52898;SDS011;38763;53.096;6.062;2023-05-16T06:02:43;7.18;;;1.40;;
52898;SDS011;38763;53.096;6.062;2023-05-16T06:05:11;10.93;;;1.30;;
52898;SDS011;38763;53.096;6.062;2023-05-16T06:07:36;12.18;;;1.70;;
52898;SDS011;38763;53.096;6.062;2023-05-16T06:10:02;8.77;;;1.35;;
52898;SDS011;38763;53.096;6.062;2023-05-16T06:12:29;10.38;;;1.30;;
52898;SDS011;38763;53.096;6.062;2023-05-16T06:14:55;5.15;;;1.40;;
52898;SDS011;38763;53.096;6.062;2023-05-16T06:17:21;10.20;;;1.85;;
52898;SDS011;38763;53.096;6.062;2023-05-16T06:19:46;16.70;;;2.80;;
52898;SDS011;38763;53.096;6.062;2023-05-16T06:22:12;9.07;;;1.58;;
52898;SDS011;38763;53.096;6.062;2023-05-16T06:24:38;10.65;;;1.38;;
52898;SDS011;38763;53.096;6.062;2023-05-16T06:27:04;5.97;;;1.20;;
52898;SDS011;38763;53.096;6.062;2023-05-16T06:29:31;8.98;;;1.50;;
52898;SDS011;38763;53.096;6.062;2023-05-16T06:31:56;9.10;;;1.40;;
52898;SDS011;38763;53.096;6.062;2023-05-16T06:34:22;7.22;;;1.40;;
52898;SDS011;38763;53.096;6.062;2023-05-16T06:36:52;10.45;;;1.58;;
52898;SDS011;38763;53.096;6.062;2023-05-16T06:39:20;12.00;;;1.60;;
52898;SDS011;38763;53.096;6.062;2023-05-16T06:41:46;5.97;;;1.30;;
52898;SDS011;38763;53.096;6.062;2023-05-16T06:44:12;13.13;;;1.65;;
52898;SDS011;38763;53.096;6.062;2023-05-16T06:46:37;8.10;;;1.42;;
52898;SDS011;38763;53.096;6.062;2023-05-16T06:49:03;5.18;;;1.00;;
52898;SDS011;38763;53.096;6.062;2023-05-16T06:51:29;6.80;;;1.20;;
52898;SDS011;38763;53.096;6.062;2023-05-16T06:53:55;6.97;;;1.10;;
52898;SDS011;38763;53.096;6.062;2023-05-16T06:56:21;4.90;;;1.23;;
52898;SDS011;38763;53.096;6.062;2023-05-16T06:58:47;8.88;;;1.40;;
52898;SDS011;38763;53.096;6.062;2023-05-16T07:01:13;8.48;;;1.52;;
52898;SDS011;38763;53.096;6.062;2023-05-16T07:03:40;10.48;;;1.85;;
52898;SDS011;38763;53.096;6.062;2023-05-16T07:06:05;14.07;;;2.15;;
52898;SDS011;38763;53.096;6.062;2023-05-16T07:08:31;12.85;;;1.80;;
52898;SDS011;38763;53.096;6.062;2023-05-16T07:10:57;13.07;;;1.73;;
52898;SDS011;38763;53.096;6.062;2023-05-16T07:13:23;13.50;;;1.90;;
52898;SDS011;38763;53.096;6.062;2023-05-16T07:15:48;10.80;;;1.67;;
52898;SDS011;38763;53.096;6.062;2023-05-16T07:18:14;11.35;;;1.70;;
52898;SDS011;38763;53.096;6.062;2023-05-16T07:20:40;12.20;;;1.90;;
52898;SDS011;38763;53.096;6.062;2023-05-16T07:23:05;12.57;;;1.80;;
52898;SDS011;38763;53.096;6.062;2023-05-16T07:25:31;8.25;;;1.50;;
52898;SDS011;38763;53.096;6.062;2023-05-16T07:27:57;7.82;;;1.95;;
52898;SDS011;38763;53.096;6.062;2023-05-16T07:30:23;13.27;;;1.73;;
52898;SDS011;38763;53.096;6.062;2023-05-16T07:32:49;11.05;;;1.73;;
52898;SDS011;38763;53.096;6.062;2023-05-16T07:35:15;11.20;;;1.63;;
52898;SDS011;38763;53.096;6.062;2023-05-16T07:37:40;7.47;;;1.63;;
52898;SDS011;38763;53.096;6.062;2023-05-16T07:40:07;9.75;;;2.05;;
52898;SDS011;38763;53.096;6.062;2023-05-16T07:42:34;11.57;;;2.17;;
52898;SDS011;38763;53.096;6.062;2023-05-16T07:45:00;12.25;;;1.63;;
52898;SDS011;38763;53.096;6.062;2023-05-16T07:47:26;13.55;;;2.00;;
52898;SDS011;38763;53.096;6.062;2023-05-16T07:49:52;11.18;;;1.80;;
52898;SDS011;38763;53.096;6.062;2023-05-16T07:52:17;10.93;;;1.80;;
52898;SDS011;38763;53.096;6.062;2023-05-16T07:54:45;9.07;;;1.80;;
52898;SDS011;38763;53.096;6.062;2023-05-16T07:57:12;12.93;;;1.70;;
52898;SDS011;38763;53.096;6.062;2023-05-16T07:59:39;9.70;;;1.55;;
52898;SDS011;38763;53.096;6.062;2023-05-16T08:02:05;11.75;;;1.40;;
52898;SDS011;38763;53.096;6.062;2023-05-16T08:04:31;13.98;;;1.88;;
52898;SDS011;38763;53.096;6.062;2023-05-16T08:06:56;13.35;;;1.40;;
52898;SDS011;38763;53.096;6.062;2023-05-16T08:09:22;9.00;;;1.60;;
52898;SDS011;38763;53.096;6.062;2023-05-16T08:11:48;8.02;;;1.55;;
52898;SDS011;38763;53.096;6.062;2023-05-16T08:14:13;7.60;;;1.40;;
52898;SDS011;38763;53.096;6.062;2023-05-16T08:16:39;11.63;;;1.58;;
52898;SDS011;38763;53.096;6.062;2023-05-16T08:19:05;8.80;;;1.85;;
52898;SDS011;38763;53.096;6.062;2023-05-16T08:21:31;10.75;;;1.70;;
52898;SDS011;38763;53.096;6.062;2023-05-16T08:23:57;10.48;;;1.65;;
52898;SDS011;38763;53.096;6.062;2023-05-16T08:26:22;8.68;;;1.65;;
52898;SDS011;38763;53.096;6.062;2023-05-16T08:28:49;10.23;;;1.70;;
52898;SDS011;38763;53.096;6.062;2023-05-16T08:31:14;7.22;;;1.50;;
52898;SDS011;38763;53.096;6.062;2023-05-16T08:33:40;10.15;;;1.50;;
52898;SDS011;38763;53.096;6.062;2023-05-16T08:36:06;9.80;;;1.70;;
52898;SDS011;38763;53.096;6.062;2023-05-16T08:38:33;8.45;;;1.25;;
52898;SDS011;38763;53.096;6.062;2023-05-16T08:40:59;6.63;;;1.45;;
52898;SDS011;38763;53.096;6.062;2023-05-16T08:43:25;6.55;;;1.20;;
52898;SDS011;38763;53.096;6.062;2023-05-16T08:45:50;8.20;;;1.48;;
52898;SDS011;38763;53.096;6.062;2023-05-16T08:48:16;9.85;;;1.55;;
52898;SDS011;38763;53.096;6.062;2023-05-16T08:50:47;7.30;;;1.30;;
52898;SDS011;38763;53.096;6.062;2023-05-16T08:53:13;9.68;;;1.40;;
52898;SDS011;38763;53.096;6.062;2023-05-16T08:55:43;9.18;;;1.38;;
52898;SDS011;38763;53.096;6.062;2023-05-16T08:58:11;9.32;;;1.20;;
52898;SDS011;38763;53.096;6.062;2023-05-16T09:00:37;9.55;;;1.30;;
52898;SDS011;38763;53.096;6.062;2023-05-16T09:03:03;11.35;;;1.75;;
52898;SDS011;38763;53.096;6.062;2023-05-16T09:05:30;8.88;;;1.65;;
52898;SDS011;38763;53.096;6.062;2023-05-16T09:07:56;13.10;;;1.75;;
52898;SDS011;38763;53.096;6.062;2023-05-16T09:10:21;8.13;;;1.40;;
52898;SDS011;38763;53.096;6.062;2023-05-16T09:12:47;8.75;;;1.63;;
52898;SDS011;38763;53.096;6.062;2023-05-16T09:15:13;7.70;;;1.40;;
52898;SDS011;38763;53.096;6.062;2023-05-16T09:17:44;12.07;;;1.55;;
52898;SDS011;38763;53.096;6.062;2023-05-16T09:22:48;6.05;;;1.60;;
52898;SDS011;38763;53.096;6.062;2023-05-16T09:25:18;8.13;;;1.55;;
52898;SDS011;38763;53.096;6.062;2023-05-16T09:27:52;10.93;;;1.77;;
52898;SDS011;38763;53.096;6.062;2023-05-16T09:30:20;7.97;;;1.30;;
52898;SDS011;38763;53.096;6.062;2023-05-16T09:32:49;7.28;;;1.33;;
52898;SDS011;38763;53.096;6.062;2023-05-16T09:35:17;9.85;;;1.60;;
52898;SDS011;38763;53.096;6.062;2023-05-16T09:37:47;7.90;;;1.80;;
52898;SDS011;38763;53.096;6.062;2023-05-16T09:40:13;7.72;;;1.35;;
52898;SDS011;38763;53.096;6.062;2023-05-16T09:42:40;3.78;;;1.10;;
52898;SDS011;38763;53.096;6.062;2023-05-16T09:45:10;9.35;;;1.60;;
52898;SDS011;38763;53.096;6.062;2023-05-16T09:47:38;8.13;;;1.40;;
52898;SDS011;38763;53.096;6.062;2023-05-16T09:50:10;9.13;;;1.50;;
52898;SDS011;38763;53.096;6.062;2023-05-16T09:52:40;7.95;;;1.25;;
52898;SDS011;38763;53.096;6.062;2023-05-16T09:55:07;12.30;;;1.60;;
52898;SDS011;38763;53.096;6.062;2023-05-16T09:57:35;5.72;;;1.30;;
52898;SDS011;38763;53.096;6.062;2023-05-16T10:00:03;5.82;;;1.25;;
52898;SDS011;38763;53.096;6.062;2023-05-16T10:02:32;6.80;;;1.38;;
52898;SDS011;38763;53.096;6.062;2023-05-16T10:04:59;5.38;;;1.10;;
52898;SDS011;38763;53.096;6.062;2023-05-16T10:07:25;7.32;;;1.17;;
52898;SDS011;38763;53.096;6.062;2023-05-16T10:09:51;6.28;;;1.00;;
52898;SDS011;38763;53.096;6.062;2023-05-16T10:12:18;7.05;;;1.38;;
52898;SDS011;38763;53.096;6.062;2023-05-16T10:14:47;8.13;;;1.58;;
52898;SDS011;38763;53.096;6.062;2023-05-16T10:17:14;5.60;;;1.20;;
52898;SDS011;38763;53.096;6.062;2023-05-16T10:19:40;6.13;;;1.30;;
52898;SDS011;38763;53.096;6.062;2023-05-16T10:22:06;5.05;;;1.05;;
52898;SDS011;38763;53.096;6.062;2023-05-16T10:24:51;8.48;;;1.35;;
52898;SDS011;38763;53.096;6.062;2023-05-16T10:27:23;7.35;;;1.20;;
52898;SDS011;38763;53.096;6.062;2023-05-16T10:29:49;8.48;;;1.58;;
52898;SDS011;38763;53.096;6.062;2023-05-16T10:32:16;8.27;;;1.40;;
52898;SDS011;38763;53.096;6.062;2023-05-16T10:34:43;5.63;;;1.35;;
52898;SDS011;38763;53.096;6.062;2023-05-16T10:37:10;8.30;;;1.33;;
52898;SDS011;38763;53.096;6.062;2023-05-16T10:39:36;12.98;;;2.25;;
52898;SDS011;38763;53.096;6.062;2023-05-16T10:42:03;9.00;;;1.40;;
52898;SDS011;38763;53.096;6.062;2023-05-16T10:44:31;6.30;;;1.30;;
52898;SDS011;38763;53.096;6.062;2023-05-16T10:46:58;8.43;;;1.38;;
52898;SDS011;38763;53.096;6.062;2023-05-16T10:49:25;9.00;;;1.65;;
52898;SDS011;38763;53.096;6.062;2023-05-16T10:52:01;9.07;;;1.40;;
52898;SDS011;38763;53.096;6.062;2023-05-16T10:54:41;7.90;;;1.55;;
52898;SDS011;38763;53.096;6.062;2023-05-16T10:57:09;7.03;;;1.40;;
52898;SDS011;38763;53.096;6.062;2023-05-16T10:59:40;5.10;;;1.50;;
52898;SDS011;38763;53.096;6.062;2023-05-16T11:02:20;8.68;;;1.83;;
52898;SDS011;38763;53.096;6.062;2023-05-16T11:04:49;8.10;;;1.50;;
52898;SDS011;38763;53.096;6.062;2023-05-16T11:07:23;5.30;;;1.50;;
52898;SDS011;38763;53.096;6.062;2023-05-16T11:10:06;9.07;;;1.50;;
52898;SDS011;38763;53.096;6.062;2023-05-16T11:15:19;4.57;;;1.30;;
52898;SDS011;38763;53.096;6.062;2023-05-16T11:17:47;4.65;;;1.40;;
52898;SDS011;38763;53.096;6.062;2023-05-16T11:25:41;6.80;;;1.45;;
52898;SDS011;38763;53.096;6.062;2023-05-16T11:28:09;9.20;;;1.92;;
52898;SDS011;38763;53.096;6.062;2023-05-16T11:30:41;5.95;;;1.48;;
52898;SDS011;38763;53.096;6.062;2023-05-16T11:33:11;7.22;;;1.60;;
52898;SDS011;38763;53.096;6.062;2023-05-16T11:35:37;6.88;;;1.58;;
52898;SDS011;38763;53.096;6.062;2023-05-16T11:38:03;7.90;;;1.60;;
52898;SDS011;38763;53.096;6.062;2023-05-16T11:40:28;5.70;;;1.50;;
52898;SDS011;38763;53.096;6.062;2023-05-16T11:42:58;7.07;;;1.63;;
52898;SDS011;38763;53.096;6.062;2023-05-16T11:45:24;6.57;;;1.70;;
52898;SDS011;38763;53.096;6.062;2023-05-16T11:47:50;8.98;;;1.85;;
52898;SDS011;38763;53.096;6.062;2023-05-16T11:50:17;5.57;;;1.42;;
52898;SDS011;38763;53.096;6.062;2023-05-16T11:52:50;9.68;;;1.85;;
52898;SDS011;38763;53.096;6.062;2023-05-16T11:55:19;8.23;;;2.10;;
52898;SDS011;38763;53.096;6.062;2023-05-16T11:57:54;9.00;;;2.20;;
52898;SDS011;38763;53.096;6.062;2023-05-16T12:00:25;6.32;;;2.17;;
52898;SDS011;38763;53.096;6.062;2023-05-16T12:02:52;6.10;;;2.05;;
52898;SDS011;38763;53.096;6.062;2023-05-16T12:05:19;7.82;;;2.08;;
52898;SDS011;38763;53.096;6.062;2023-05-16T12:07:49;7.15;;;2.00;;
52898;SDS011;38763;53.096;6.062;2023-05-16T12:10:18;7.63;;;1.90;;
52898;SDS011;38763;53.096;6.062;2023-05-16T12:12:45;6.35;;;2.47;;
52898;SDS011;38763;53.096;6.062;2023-05-16T12:15:13;9.20;;;2.08;;
52898;SDS011;38763;53.096;6.062;2023-05-16T12:17:39;8.32;;;1.95;;
52898;SDS011;38763;53.096;6.062;2023-05-16T12:20:05;7.35;;;1.98;;
52898;SDS011;38763;53.096;6.062;2023-05-16T12:22:38;7.80;;;2.08;;
52898;SDS011;38763;53.096;6.062;2023-05-16T12:25:19;6.50;;;2.10;;
52898;SDS011;38763;53.096;6.062;2023-05-16T12:27:46;7.20;;;2.10;;
52898;SDS011;38763;53.096;6.062;2023-05-16T12:30:12;9.18;;;2.10;;
52898;SDS011;38763;53.096;6.062;2023-05-16T12:32:40;11.13;;;2.45;;
52898;SDS011;38763;53.096;6.062;2023-05-16T12:35:06;9.23;;;2.40;;
52898;SDS011;38763;53.096;6.062;2023-05-16T12:37:34;8.07;;;2.47;;
52898;SDS011;38763;53.096;6.062;2023-05-16T12:40:00;6.63;;;2.50;;
52898;SDS011;38763;53.096;6.062;2023-05-16T12:42:28;7.20;;;2.58;;
52898;SDS011;38763;53.096;6.062;2023-05-16T12:44:55;7.88;;;2.88;;
52898;SDS011;38763;53.096;6.062;2023-05-16T12:47:20;6.18;;;2.80;;
52898;SDS011;38763;53.096;6.062;2023-05-16T12:49:47;8.23;;;2.70;;
52898;SDS011;38763;53.096;6.062;2023-05-16T12:52:18;8.95;;;2.13;;
52898;SDS011;38763;53.096;6.062;2023-05-16T12:54:45;9.63;;;2.20;;
52898;SDS011;38763;53.096;6.062;2023-05-16T12:57:11;8.32;;;2.13;;
52898;SDS011;38763;53.096;6.062;2023-05-16T12:59:38;7.65;;;2.13;;
52898;SDS011;38763;53.096;6.062;2023-05-16T13:02:03;8.40;;;2.30;;
52898;SDS011;38763;53.096;6.062;2023-05-16T13:04:29;8.30;;;2.33;;
52898;SDS011;38763;53.096;6.062;2023-05-16T13:06:55;5.70;;;2.22;;
52898;SDS011;38763;53.096;6.062;2023-05-16T13:09:21;5.47;;;1.90;;
52898;SDS011;38763;53.096;6.062;2023-05-16T13:11:47;8.30;;;2.08;;
52898;SDS011;38763;53.096;6.062;2023-05-16T13:14:14;12.85;;;2.15;;
52898;SDS011;38763;53.096;6.062;2023-05-16T13:16:41;6.38;;;2.00;;
52898;SDS011;38763;53.096;6.062;2023-05-16T13:19:07;7.00;;;2.17;;
52898;SDS011;38763;53.096;6.062;2023-05-16T13:21:33;10.85;;;2.42;;
52898;SDS011;38763;53.096;6.062;2023-05-16T13:23:59;9.75;;;2.55;;
52898;SDS011;38763;53.096;6.062;2023-05-16T13:26:25;8.43;;;2.47;;
52898;SDS011;38763;53.096;6.062;2023-05-16T13:28:51;9.52;;;2.80;;
52898;SDS011;38763;53.096;6.062;2023-05-16T13:31:19;7.38;;;2.80;;
52898;SDS011;38763;53.096;6.062;2023-05-16T13:33:46;8.63;;;2.80;;
52898;SDS011;38763;53.096;6.062;2023-05-16T13:36:11;8.73;;;2.30;;
52898;SDS011;38763;53.096;6.062;2023-05-16T13:38:37;6.28;;;2.15;;
52898;SDS011;38763;53.096;6.062;2023-05-16T13:41:03;6.57;;;2.33;;
52898;SDS011;38763;53.096;6.062;2023-05-16T13:43:28;8.00;;;2.55;;
52898;SDS011;38763;53.096;6.062;2023-05-16T13:45:54;10.02;;;2.15;;
52898;SDS011;38763;53.096;6.062;2023-05-16T13:48:21;8.27;;;2.80;;
52898;SDS011;38763;53.096;6.062;2023-05-16T13:50:46;7.90;;;2.35;;
52898;SDS011;38763;53.096;6.062;2023-05-16T13:53:12;8.90;;;2.95;;
52898;SDS011;38763;53.096;6.062;2023-05-16T13:55:38;9.75;;;2.47;;
52898;SDS011;38763;53.096;6.062;2023-05-16T13:58:04;6.95;;;2.22;;
52898;SDS011;38763;53.096;6.062;2023-05-16T14:00:29;8.30;;;2.90;;
52898;SDS011;38763;53.096;6.062;2023-05-16T14:02:55;5.75;;;2.10;;
52898;SDS011;38763;53.096;6.062;2023-05-16T14:05:21;6.72;;;1.90;;
52898;SDS011;38763;53.096;6.062;2023-05-16T14:07:46;10.13;;;2.28;;
52898;SDS011;38763;53.096;6.062;2023-05-16T14:10:12;8.18;;;2.30;;
52898;SDS011;38763;53.096;6.062;2023-05-16T14:12:38;7.80;;;1.90;;
52898;SDS011;38763;53.096;6.062;2023-05-16T14:15:04;7.15;;;2.10;;
52898;SDS011;38763;53.096;6.062;2023-05-16T14:17:31;7.18;;;2.00;;
52898;SDS011;38763;53.096;6.062;2023-05-16T14:19:56;5.43;;;2.03;;
52898;SDS011;38763;53.096;6.062;2023-05-16T14:22:22;9.43;;;2.15;;
52898;SDS011;38763;53.096;6.062;2023-05-16T14:24:48;8.20;;;2.35;;
52898;SDS011;38763;53.096;6.062;2023-05-16T14:27:14;5.85;;;2.45;;
52898;SDS011;38763;53.096;6.062;2023-05-16T14:29:40;8.95;;;2.03;;
52898;SDS011;38763;53.096;6.062;2023-05-16T14:32:06;6.80;;;2.00;;
52898;SDS011;38763;53.096;6.062;2023-05-16T14:34:35;5.55;;;1.58;;
52898;SDS011;38763;53.096;6.062;2023-05-16T14:37:00;5.70;;;1.20;;
52898;SDS011;38763;53.096;6.062;2023-05-16T14:39:26;6.80;;;1.80;;
52898;SDS011;38763;53.096;6.062;2023-05-16T14:41:52;6.72;;;1.70;;
52898;SDS011;38763;53.096;6.062;2023-05-16T14:44:17;7.03;;;1.60;;
52898;SDS011;38763;53.096;6.062;2023-05-16T14:46:45;8.15;;;1.95;;
52898;SDS011;38763;53.096;6.062;2023-05-16T14:49:11;5.70;;;1.38;;
52898;SDS011;38763;53.096;6.062;2023-05-16T14:51:37;5.25;;;1.63;;
52898;SDS011;38763;53.096;6.062;2023-05-16T14:54:03;5.38;;;1.60;;
52898;SDS011;38763;53.096;6.062;2023-05-16T14:56:29;8.70;;;1.80;;
52898;SDS011;38763;53.096;6.062;2023-05-16T14:58:56;6.95;;;1.77;;
52898;SDS011;38763;53.096;6.062;2023-05-16T15:01:21;7.30;;;1.90;;
52898;SDS011;38763;53.096;6.062;2023-05-16T15:03:47;5.55;;;1.55;;
52898;SDS011;38763;53.096;6.062;2023-05-16T15:06:13;6.72;;;1.95;;
52898;SDS011;38763;53.096;6.062;2023-05-16T15:08:38;6.07;;;1.65;;
52898;SDS011;38763;53.096;6.062;2023-05-16T15:11:04;5.75;;;1.83;;
52898;SDS011;38763;53.096;6.062;2023-05-16T15:13:30;9.07;;;2.78;;
52898;SDS011;38763;53.096;6.062;2023-05-16T15:15:55;7.97;;;2.42;;